No requiere especial atencion con respecto al clima.   -   No hay Alarmas

Nearby METAR Reports

 

LEXJ - Santander/Parayas, Spain
Distance from station: ESE 6km
Actualización: 24/06/2017 12:00
Muy nuboso
Muy nuboso
 Viento del ENE
Viento: ENE 6 km/h
Temperatura: 20°C
Rocío: 16°C
Humedad: 78%
Barómetro: 1022 hPa
Clouds: Muy nuboso
Visibility: 10 km
Cloud details: Muy nuboso 762 m
Muy nuboso 1219 m
2017/06/24 10:00 LEXJ 241000Z 06003KT 010V100 9999 BKN025 BKN040 20/16 Q1022
LEBB - Bilbao/Sondica, Spain
Distance from station: ESE 80km
Actualización: 24/06/2017 12:10
Mist, Muy nuboso
Mist, Muy nuboso
 Viento del calm
Viento: Calma
Temperatura: 19°C
Rocío: 19°C
Humedad: 100%
Barómetro: 1022 hPa
Resumen: Mist
Clouds: Muy nuboso
Visibility: 4 km
Cloud details: Few Clouds 183 m
Muy nuboso 457 m
Muy nuboso 610 m
2017/06/24 10:10 LEBB 241010Z 00000KT 3500 BR FEW006 BKN015 BKN020 19/19 Q1022 TEMPO 2000 -RADZ BKN009
 
LEBL - Barcelona Airpor, Spain
Distance from station: ESE 554km
Actualización: 24/06/2017 12:00
Few Clouds
Few Clouds
 Viento del S
Viento: S 13 km/h
Temperatura: 27°C
Heat Index: 30°C
Rocío: 23°C
Humedad: 79%
Barómetro: 1019 hPa
Clouds: Few Clouds
Visibility: 10 km
Cloud details: Few Clouds 610 m
2017/06/24 10:00 LEBL 241000Z 18007KT 100V220 9999 FEW020 27/23 Q1019 NOSIG
LEMD - Madrid/Barajas, Spain
Distance from station: S 325km
Actualización: 24/06/2017 12:00
Despejado
Despejado
 Viento del SSO
Viento: SSO 17 km/h
Temperatura: 31°C
Rocío: 6°C
Humedad: 21%
Barómetro: 1021 hPa
Resumen: Despejado
Visibility: greater than 10 km
2017/06/24 10:00 LEMD 241000Z 20009KT 150V310 CAVOK 31/06 Q1021 NOSIG
 
LPPT - Lisbon/Portela, Portugal
Distance from station: SO 663km
Actualización: 24/06/2017 12:00
Despejado
Despejado
 Viento del NNO
Viento: NNO 15 km/h
Temperatura: 24°C
Rocío: 14°C
Humedad: 54%
Barómetro: 1022 hPa
Resumen: Despejado
Visibility: greater than 10 km
2017/06/24 10:00 LPPT 241000Z 33008KT 260V010 CAVOK 24/14 Q1022
LECO - La Coruna/Alvedr, Spain
Distance from station: O 349km
Actualización: 24/06/2017 12:00
Parcialmente nuboso
Parcialmente nuboso
 Viento del N
Viento: N 11 km/h
Temperatura: 21°C
Rocío: 14°C
Humedad: 64%
Barómetro: 1024 hPa
Clouds: Parcialmente nuboso
Visibility: 10 km
Cloud details: Parcialmente nuboso 610 m
2017/06/24 10:00 LECO 241000Z 36006KT 300V060 9999 SCT020 21/14 Q1024 NOSIG
 
LEST - Santiago/Labacol, Spain
Distance from station: O 358km
Actualización: 24/06/2017 12:00
Few Clouds
Few Clouds
 Viento del NNE
Viento: NNE 6 km/h
Temperatura: 19°C
Rocío: 13°C
Humedad: 68%
Barómetro: 1024 hPa
Clouds: Few Clouds
Visibility: 10 km
Cloud details: Few Clouds 732 m
2017/06/24 10:00 LEST 241000Z 03003KT 300V100 9999 FEW024 19/13 Q1024 NOSIG
EBBR - Brussels International Airport, Belgium
Distance from station: O 14km
Actualización: 24/06/2017 11:50
Muy nuboso
Muy nuboso
 Viento del OSO
Viento: OSO 24 km/h
Temperatura: 18°C
Rocío: 13°C
Humedad: 73%
Barómetro: 1016 hPa
Clouds: Muy nuboso
Visibility: 10 km
Cloud details: Muy nuboso 671 m
2017/06/24 09:50 EBBR 240950Z 24013KT 9999 BKN022 18/13 Q1016 NOSIG